createdAt,value
2023-04-01T00:00:00.118Z, 0.8
2023-04-01T00:02:00.121Z, 1
2023-04-01T00:04:00.222Z, 1
2023-04-01T00:06:00.126Z, 1
2023-04-01T00:08:00.117Z, 0.9
2023-04-01T00:10:00.157Z, 0.9
2023-04-01T00:12:00.146Z, 0.6
2023-04-01T00:14:00.110Z, 0.6
2023-04-01T00:16:00.455Z, 0.6
2023-04-01T00:18:00.212Z, 1
2023-04-01T00:20:00.160Z, 1
2023-04-01T00:22:00.125Z, 0.9
2023-04-01T00:24:00.356Z, 0.9
2023-04-01T00:26:00.082Z, 0.9
2023-04-01T00:28:00.044Z, 0.8
2023-04-01T00:30:00.143Z, 0.8
2023-04-01T00:32:00.154Z, 1.1
2023-04-01T00:34:00.117Z, 1.1
2023-04-01T00:36:00.156Z, 1.1
2023-04-01T00:38:00.107Z, 0.7
2023-04-01T00:40:00.161Z, 0.7
2023-04-01T00:42:00.122Z, 0.8
2023-04-01T00:44:00.042Z, 0.8
2023-04-01T00:46:00.082Z, 0.8
2023-04-01T00:48:00.169Z, 1
2023-04-01T00:50:00.086Z, 1
2023-04-01T00:52:00.123Z, 0.7
2023-04-01T00:54:00.146Z, 0.7
2023-04-01T00:56:00.125Z, 0.7
2023-04-01T00:58:00.119Z, 0.6
2023-04-01T01:00:00.259Z, 0.6
2023-04-01T01:02:00.162Z, 0.7
2023-04-01T01:04:00.143Z, 0.7
2023-04-01T01:06:00.157Z, 0.7
2023-04-01T01:08:00.127Z, 0.7
2023-04-01T01:10:00.141Z, 0.7
2023-04-01T01:12:00.156Z, 0.7
2023-04-01T01:14:00.137Z, 0.7
2023-04-01T01:16:00.106Z, 0.7
2023-04-01T01:18:00.165Z, 0.3
2023-04-01T01:20:00.168Z, 0.3
2023-04-01T01:22:00.123Z, 0.6
2023-04-01T01:24:00.139Z, 0.6
2023-04-01T01:26:00.101Z, 0.6
2023-04-01T01:28:00.121Z, 0.5
2023-04-01T01:30:00.158Z, 0.5
2023-04-01T01:32:00.105Z, 0.6
2023-04-01T01:34:00.096Z, 0.6
2023-04-01T01:36:00.192Z, 0.6
2023-04-01T01:38:00.116Z, 0.4
2023-04-01T01:40:00.130Z, 0.4
2023-04-01T01:42:00.118Z, 0.6
2023-04-01T01:44:00.110Z, 0.6
2023-04-01T01:46:00.191Z, 0.6
2023-04-01T01:48:00.169Z, 0.5
2023-04-01T01:50:00.143Z, 0.5
2023-04-01T01:52:00.096Z, 1.2
2023-04-01T01:54:00.123Z, 1.2
2023-04-01T01:56:00.112Z, 1.2
2023-04-01T01:58:00.119Z, 0.8
2023-04-01T02:00:00.179Z, 0.8
2023-04-01T02:02:00.240Z, 0.7
2023-04-01T02:04:00.143Z, 0.7
2023-04-01T02:06:00.137Z, 0.7
2023-04-01T02:08:00.129Z, 1
2023-04-01T02:10:00.143Z, 1
2023-04-01T02:12:00.181Z, 0.7
2023-04-01T02:14:00.130Z, 0.7
2023-04-01T02:16:00.201Z, 0.7
2023-04-01T02:18:00.255Z, 0.4
2023-04-01T02:20:00.265Z, 0.4
2023-04-01T02:22:00.167Z, 0.7
2023-04-01T02:24:00.157Z, 0.7
2023-04-01T02:26:00.060Z, 0.7
2023-04-01T02:28:00.101Z, 1
2023-04-01T02:30:00.115Z, 1
2023-04-01T02:32:00.049Z, 0.6
2023-04-01T02:34:00.069Z, 0.6
2023-04-01T02:36:00.181Z, 0.5
2023-04-01T02:38:00.045Z, 0.5
2023-04-01T02:40:00.142Z, 0.5
2023-04-01T02:42:00.096Z, 0.5
2023-04-01T02:44:00.039Z, 0.5
2023-04-01T02:46:00.105Z, 0.5
2023-04-01T02:48:00.142Z, 0.5
2023-04-01T02:50:00.053Z, 0.5
2023-04-01T02:52:00.248Z, 0.8
2023-04-01T02:54:00.114Z, 0.8
2023-04-01T02:56:00.124Z, 1.1
2023-04-01T02:58:00.125Z, 1.1
2023-04-01T03:00:00.124Z, 1.1
2023-04-01T03:02:00.145Z, 0.9
2023-04-01T03:04:00.146Z, 0.9
2023-04-01T03:06:00.153Z, 0.7
2023-04-01T03:08:00.144Z, 0.7
2023-04-01T03:10:00.168Z, 0.7
2023-04-01T03:12:00.184Z, 0.7
2023-04-01T03:14:00.124Z, 0.7
2023-04-01T03:16:00.166Z, 0.8
2023-04-01T03:18:00.289Z, 0.8
2023-04-01T03:20:00.144Z, 0.8
2023-04-01T03:22:00.115Z, 1
2023-04-01T03:24:00.153Z, 1
2023-04-01T03:26:00.113Z, 0.7
2023-04-01T03:28:00.134Z, 0.7
2023-04-01T03:30:00.159Z, 0.7
2023-04-01T03:32:00.148Z, 0.5
2023-04-01T03:34:00.097Z, 0.5
2023-04-01T03:36:00.258Z, 0.9
2023-04-01T03:38:00.098Z, 0.9
2023-04-01T03:40:00.055Z, 0.9
2023-04-01T03:42:00.165Z, 0.7
2023-04-01T03:44:00.093Z, 0.7
2023-04-01T03:46:00.187Z, 0.9
2023-04-01T03:48:00.174Z, 0.9
2023-04-01T03:50:00.060Z, 0.9
2023-04-01T03:52:00.064Z, 0.7
2023-04-01T03:54:00.056Z, 0.7
2023-04-01T03:56:00.182Z, 0.6
2023-04-01T03:58:00.118Z, 0.6
2023-04-01T04:00:00.190Z, 0.6
2023-04-01T04:02:00.138Z, 0.7
2023-04-01T04:04:00.167Z, 0.7
2023-04-01T04:06:00.159Z, 0.6
2023-04-01T04:08:00.150Z, 0.6
2023-04-01T04:10:00.144Z, 0.6
2023-04-01T04:12:00.186Z, 0.4
2023-04-01T04:14:00.135Z, 0.4
2023-04-01T04:16:00.163Z, 0.5
2023-04-01T04:18:00.229Z, 0.5
2023-04-01T04:20:00.179Z, 0.5
2023-04-01T04:22:00.180Z, 0.3
2023-04-01T04:24:00.163Z, 0.3
2023-04-01T04:26:00.194Z, 0.6
2023-04-01T04:28:00.191Z, 0.6
2023-04-01T04:30:00.243Z, 0.6
2023-04-01T04:32:00.337Z, 0.2
2023-04-01T04:34:00.155Z, 0.2
2023-04-01T04:36:00.201Z, 0.3
2023-04-01T04:38:00.160Z, 0.3
2023-04-01T04:40:00.194Z, 0.3
2023-04-01T04:42:00.215Z, 0.2
2023-04-01T04:44:00.162Z, 0.2
2023-04-01T04:46:00.149Z, 0.2
2023-04-01T04:48:00.281Z, 0.2
2023-04-01T04:50:00.174Z, 0.2
2023-04-01T04:52:00.158Z, 0.3
2023-04-01T04:54:00.212Z, 0.3
2023-04-01T04:56:00.070Z, 0.2
2023-04-01T04:58:00.058Z, 0.2
2023-04-01T05:00:00.202Z, 0.2
2023-04-01T05:02:00.146Z, 0.3
2023-04-01T05:04:00.056Z, 0.3
2023-04-01T05:06:00.079Z, 0.3
2023-04-01T05:08:00.082Z, 0.3
2023-04-01T05:10:00.071Z, 0.3
2023-04-01T05:12:00.098Z, 0.3
2023-04-01T05:14:00.060Z, 0.3
2023-04-01T05:16:00.041Z, 0.2
2023-04-01T05:18:00.123Z, 0.2
2023-04-01T05:20:00.055Z, 0.2
2023-04-01T05:22:00.042Z, 0.4
2023-04-01T05:24:00.104Z, 0.4
2023-04-01T05:26:00.124Z, 0.3
2023-04-01T05:28:00.108Z, 0.3
2023-04-01T05:30:00.119Z, 0.3
2023-04-01T05:32:00.168Z, 0.3
2023-04-01T05:34:00.154Z, 0.3
2023-04-01T05:36:00.190Z, 0.4
2023-04-01T05:38:00.121Z, 0.4
2023-04-01T05:40:00.161Z, 0.4
2023-04-01T05:42:00.134Z, 0.3
2023-04-01T05:44:00.106Z, 0.3
2023-04-01T05:46:00.119Z, 0.2
2023-04-01T05:48:00.209Z, 0.2
2023-04-01T05:50:00.146Z, 0.2
2023-04-01T05:52:00.124Z, 0.5
2023-04-01T05:54:00.123Z, 0.5
2023-04-01T05:56:00.118Z, 0.2
2023-04-01T05:58:00.092Z, 0.2
2023-04-01T06:00:00.126Z, 0.3
2023-04-01T06:02:00.238Z, 0.3
2023-04-01T06:04:00.212Z, 0.3
2023-04-01T06:06:00.068Z, 0.3
2023-04-01T06:08:00.119Z, 0.3
2023-04-01T06:10:00.090Z, 0.3
2023-04-01T06:12:00.095Z, 0.3
2023-04-01T06:14:00.105Z, 0.3
2023-04-01T06:16:00.116Z, 0.2
2023-04-01T06:18:00.139Z, 0.2
2023-04-01T06:20:00.060Z, 0.1
2023-04-01T06:22:00.049Z, 0.1
2023-04-01T06:24:00.055Z, 0.1
2023-04-01T06:26:00.141Z, 0.1
2023-04-01T06:28:00.090Z, 0.1
2023-04-01T06:30:00.161Z, 0.2
2023-04-01T06:32:00.172Z, 0.2
2023-04-01T06:34:00.141Z, 0.2
2023-04-01T06:36:00.267Z, 0.2
2023-04-01T06:38:00.135Z, 0.2
2023-04-01T06:40:00.152Z, 0.1
2023-04-01T06:42:00.140Z, 0.1
2023-04-01T06:44:00.114Z, 0.1
2023-04-01T06:46:00.136Z, 0.1
2023-04-01T06:48:00.189Z, 0.1
2023-04-01T06:50:00.156Z, 0.2
2023-04-01T06:52:00.144Z, 0.2
2023-04-01T06:54:00.129Z, 0.2
2023-04-01T06:56:00.064Z, 0.2
2023-04-01T06:58:00.062Z, 0.2
2023-04-01T07:00:00.088Z, 0.1
2023-04-01T07:02:00.041Z, 0.1
2023-04-01T07:04:00.269Z, 0.1
2023-04-01T07:06:00.051Z, 0.2
2023-04-01T07:08:00.033Z, 0.2
2023-04-01T07:10:00.031Z, 0.1
2023-04-01T07:12:00.088Z, 0.1
2023-04-01T07:14:00.065Z, 0.1
2023-04-01T07:16:00.120Z, 0.2
2023-04-01T07:18:00.273Z, 0.2
2023-04-01T07:20:00.067Z, 0.1
2023-04-01T07:22:00.048Z, 0.1
2023-04-01T07:24:00.053Z, 0.1
2023-04-01T07:26:00.115Z, 0.1
2023-04-01T07:28:00.153Z, 0.1
2023-04-01T07:30:00.129Z, 0.1
2023-04-01T07:32:00.105Z, 0.1
2023-04-01T07:34:00.105Z, 0.1
2023-04-01T07:36:00.182Z, 0.1
2023-04-01T07:38:00.110Z, 0.1
2023-04-01T07:40:00.145Z, 0.2
2023-04-01T07:42:00.167Z, 0.2
2023-04-01T07:44:00.101Z, 0.2
2023-04-01T07:46:00.151Z, 0.1
2023-04-01T07:48:00.168Z, 0.1
2023-04-01T07:50:00.143Z, 0.1
2023-04-01T07:52:00.145Z, 0.1
2023-04-01T07:54:00.154Z, 0.1
2023-04-01T07:56:00.062Z, 0.2
2023-04-01T07:58:00.047Z, 0.2
2023-04-01T08:00:00.114Z, 0.2
2023-04-01T08:02:00.048Z, 0.2
2023-04-01T08:04:00.338Z, 0.2
2023-04-01T08:06:00.050Z, 0.1
2023-04-01T08:08:00.029Z, 0.1
2023-04-01T08:10:00.016Z, 0.2
2023-04-01T08:12:00.062Z, 0.2
2023-04-01T08:14:00.080Z, 0.2
2023-04-01T08:16:00.178Z, 0.2
2023-04-01T08:18:00.160Z, 0.2
2023-04-01T08:20:00.070Z, 0.1
2023-04-01T08:22:00.096Z, 0.1
2023-04-01T08:24:00.071Z, 0.1
2023-04-01T08:26:00.074Z, 0.1
2023-04-01T08:28:00.030Z, 0.1
2023-04-01T08:30:00.038Z, 0.1
2023-04-01T08:32:00.157Z, 0.1
2023-04-01T08:34:00.025Z, 0.1
2023-04-01T08:36:00.219Z, 0.2
2023-04-01T08:38:00.041Z, 0.2
2023-04-01T08:40:00.010Z, 0.2
2023-04-01T08:42:00.034Z, 0.2
2023-04-01T08:44:00.034Z, 0.2
2023-04-01T08:46:00.080Z, 0.1
2023-04-01T08:48:00.037Z, 0.1
2023-04-01T08:50:00.004Z, 0.3
2023-04-01T08:52:00.012Z, 0.3
2023-04-01T08:54:00.020Z, 0.3
2023-04-01T08:56:00.106Z, 0.1
2023-04-01T08:58:00.110Z, 0.1
2023-04-01T09:00:00.114Z, 0.1
2023-04-01T09:02:00.199Z, 0.1
2023-04-01T09:04:00.301Z, 0.1
2023-04-01T09:06:00.119Z, 0.1
2023-04-01T09:08:00.113Z, 0.1
2023-04-01T09:10:00.155Z, 0.1
2023-04-01T09:12:00.179Z, 0.1
2023-04-01T09:14:00.131Z, 0.1
2023-04-01T09:16:00.184Z, 0.1
2023-04-01T09:18:00.149Z, 0.1
2023-04-01T09:20:00.129Z, 0.2
2023-04-01T09:22:00.122Z, 0.2
2023-04-01T09:24:00.156Z, 0.1
2023-04-01T09:26:00.109Z, 0.1
2023-04-01T09:28:00.088Z, 0.1
2023-04-01T09:30:00.102Z, 0.1
2023-04-01T09:32:00.041Z, 0.1
2023-04-01T09:34:00.058Z, 0.1
2023-04-01T09:36:00.090Z, 0.1
2023-04-01T09:38:00.045Z, 0.1
2023-04-01T09:40:00.056Z, 0.1
2023-04-01T09:42:00.055Z, 0.1
2023-04-01T09:44:00.047Z, 0.1
2023-04-01T09:46:00.130Z, 0.1
2023-04-01T09:48:00.170Z, 0.1
2023-04-01T09:50:00.042Z, 0.1
2023-04-01T09:52:00.045Z, 0.1
2023-04-01T09:54:00.039Z, 0.1
2023-04-01T09:56:00.123Z, 0.1
2023-04-01T09:58:00.197Z, 0.1
2023-04-01T10:00:00.164Z, 0.2
2023-04-01T10:02:00.166Z, 0.2
2023-04-01T10:04:00.130Z, 0.1
2023-04-01T10:06:00.203Z, 0.1
2023-04-01T10:08:00.125Z, 0.1
2023-04-01T10:10:00.102Z, 0.1
2023-04-01T10:12:00.117Z, 0.1
2023-04-01T10:14:00.171Z, 0.1
2023-04-01T10:16:00.159Z, 0.1
2023-04-01T10:18:00.187Z, 0.1
2023-04-01T10:20:00.109Z, 0.2
2023-04-01T10:22:00.140Z, 0.2
2023-04-01T10:24:00.132Z, 0.1
2023-04-01T10:26:00.057Z, 0.1
2023-04-01T10:28:00.052Z, 0.1
2023-04-01T10:30:00.155Z, 0.2
2023-04-01T10:32:00.132Z, 0.2
2023-04-01T10:34:00.066Z, 0.1
2023-04-01T10:36:00.097Z, 0.1
2023-04-01T10:38:00.142Z, 0.1
2023-04-01T10:40:00.049Z, 0.6
2023-04-01T10:42:00.045Z, 0.6
2023-04-01T10:44:00.059Z, 0.2
2023-04-01T10:46:00.082Z, 0.2
2023-04-01T10:48:00.111Z, 0.2
2023-04-01T10:50:00.077Z, 0.2
2023-04-01T10:52:00.029Z, 0.2
2023-04-01T10:54:00.022Z, 0.3
2023-04-01T10:56:00.123Z, 0.3
2023-04-01T10:58:00.143Z, 0.3
2023-04-01T11:00:00.178Z, 0.2
2023-04-01T11:02:10.106Z, 0.2
2023-04-01T11:04:00.164Z, 0.2
2023-04-01T11:06:00.106Z, 0.2
2023-04-01T11:08:05.986Z, 0.2
2023-04-01T11:10:00.106Z, 0.2
2023-04-01T11:12:00.142Z, 0.2
2023-04-01T11:14:00.104Z, 0.4
2023-04-01T11:16:00.144Z, 0.4
2023-04-01T11:18:00.164Z, 0.4
2023-04-01T11:20:00.115Z, 0.3
2023-04-01T11:22:00.114Z, 0.3
2023-04-01T11:24:04.915Z, 0.3
2023-04-01T11:26:00.104Z, 0.3
2023-04-01T11:28:00.049Z, 0.3
2023-04-01T11:30:00.904Z, 0.3
2023-04-01T11:32:00.055Z, 0.3
2023-04-01T11:34:00.079Z, 0.3
2023-04-01T11:36:00.084Z, 0.3
2023-04-01T11:38:00.041Z, 0.3
2023-04-01T11:40:00.040Z, 0.3
2023-04-01T11:42:00.085Z, 0.3
2023-04-01T11:44:00.049Z, 0.3
2023-04-01T11:46:00.056Z, 0.3
2023-04-01T11:48:00.087Z, 0.3
2023-04-01T11:50:00.042Z, 0.3
2023-04-01T11:52:00.038Z, 0.3
2023-04-01T11:54:00.026Z, 0.4
2023-04-01T11:56:00.123Z, 0.4
2023-04-01T11:58:00.132Z, 0.4
2023-04-01T12:00:00.107Z, 0.4
2023-04-01T12:02:00.112Z, 0.4
2023-04-01T12:04:00.341Z, 0.8
2023-04-01T12:06:00.115Z, 0.8
2023-04-01T12:08:00.112Z, 0.8
2023-04-01T12:10:00.125Z, 0.5
2023-04-01T12:12:00.116Z, 0.5
2023-04-01T12:14:00.123Z, 0.5
2023-04-01T12:16:00.155Z, 0.5
2023-04-01T12:18:00.209Z, 0.5
2023-04-01T12:20:00.145Z, 0.3
2023-04-01T12:22:00.163Z, 0.3
2023-04-01T12:24:00.124Z, 0.4
2023-04-01T12:28:00.106Z, 0.4
2023-04-01T12:30:00.126Z, 0.3
2023-04-01T12:32:00.166Z, 0.3
2023-04-01T12:34:00.052Z, 0.2
2023-04-01T12:36:00.178Z, 0.2
2023-04-01T12:38:00.077Z, 0.2
2023-04-01T12:40:00.066Z, 0.2
2023-04-01T12:42:00.084Z, 0.2
2023-04-01T12:44:00.052Z, 0.3
2023-04-01T12:46:00.091Z, 0.3
2023-04-01T12:48:00.154Z, 0.3
2023-04-01T12:50:00.060Z, 0.3
2023-04-01T12:52:00.081Z, 0.3
2023-04-01T12:54:00.063Z, 0.4
2023-04-01T12:56:00.126Z, 0.4
2023-04-01T12:58:00.133Z, 0.4
2023-04-01T13:00:00.140Z, 0.4
2023-04-01T13:02:00.128Z, 0.4
2023-04-01T13:04:00.195Z, 0.4
2023-04-01T13:06:00.119Z, 0.4
2023-04-01T13:08:00.139Z, 0.4
2023-04-01T13:10:00.134Z, 0.4
2023-04-01T13:12:00.142Z, 0.4
2023-04-01T13:14:00.122Z, 0.5
2023-04-01T13:16:00.220Z, 0.5
2023-04-01T13:18:00.185Z, 0.5
2023-04-01T13:20:05.632Z, 0.5
2023-04-01T13:22:00.125Z, 0.5
2023-04-01T13:24:00.119Z, 0.6
2023-04-01T13:26:13.130Z, 0.6
2023-04-01T13:28:00.108Z, 0.6
2023-04-01T13:30:00.136Z, 0.6
2023-04-01T13:32:00.088Z, 0.6
2023-04-01T13:34:00.082Z, 0.4
2023-04-01T13:36:00.136Z, 0.4
2023-04-01T13:38:00.068Z, 0.6
2023-04-01T13:40:00.072Z, 0.6
2023-04-01T13:42:00.101Z, 0.6
2023-04-01T13:44:00.056Z, 1.1
2023-04-01T13:46:00.063Z, 1.1
2023-04-01T13:48:00.109Z, 0.9
2023-04-01T13:50:00.093Z, 0.9
2023-04-01T13:52:00.054Z, 0.9
2023-04-01T13:54:00.069Z, 0.5
2023-04-01T13:56:00.131Z, 0.5
2023-04-01T13:58:00.145Z, 0.6
2023-04-01T14:00:00.169Z, 0.6
2023-04-01T14:02:00.193Z, 0.6
2023-04-01T14:04:00.178Z, 0.8
2023-04-01T14:06:00.156Z, 0.8
2023-04-01T14:08:00.177Z, 0.7
2023-04-01T14:10:00.141Z, 0.7
2023-04-01T14:12:00.180Z, 0.7
2023-04-01T14:14:00.151Z, 0.8
2023-04-01T14:16:00.253Z, 0.8
2023-04-01T14:18:00.226Z, 0.8
2023-04-01T14:20:02.200Z, 0.8
2023-04-01T14:22:00.167Z, 0.8
2023-04-01T14:24:00.166Z, 0.7
2023-04-01T14:26:00.097Z, 0.7
2023-04-01T14:28:00.050Z, 0.7
2023-04-01T14:30:00.109Z, 0.7
2023-04-01T14:32:00.108Z, 0.7
2023-04-01T14:34:00.075Z, 0.7
2023-04-01T14:36:00.174Z, 0.7
2023-04-01T14:38:00.083Z, 0.6
2023-04-01T14:40:00.084Z, 0.6
2023-04-01T14:42:04.043Z, 0.6
2023-04-01T14:44:00.089Z, 0.5
2023-04-01T14:46:00.121Z, 0.5
2023-04-01T14:48:00.156Z, 0.4
2023-04-01T14:50:00.710Z, 0.4
2023-04-01T14:52:00.048Z, 0.4
2023-04-01T14:54:00.111Z, 0.5
2023-04-01T14:56:00.115Z, 0.5
2023-04-01T14:58:00.116Z, 0.4
2023-04-01T15:00:00.122Z, 0.4
2023-04-01T15:02:00.122Z, 0.4
2023-04-01T15:04:00.181Z, 0.6
2023-04-01T15:06:00.146Z, 0.6
2023-04-01T15:08:00.132Z, 0.5
2023-04-01T15:10:00.154Z, 0.5
2023-04-01T15:12:00.126Z, 0.5
2023-04-01T15:14:00.160Z, 0.4
2023-04-01T15:16:00.142Z, 0.4
2023-04-01T15:18:00.279Z, 0.4
2023-04-01T15:20:00.118Z, 0.4
2023-04-01T15:22:00.133Z, 0.4
2023-04-01T15:24:00.129Z, 0.4
2023-04-01T15:26:00.119Z, 0.4
2023-04-01T15:28:00.129Z, 0.4
2023-04-01T15:30:00.122Z, 0.4
2023-04-01T15:32:00.100Z, 0.4
2023-04-01T15:34:00.098Z, 0.5
2023-04-01T15:36:00.159Z, 0.5
2023-04-01T15:38:00.108Z, 0.4
2023-04-01T15:40:00.102Z, 0.4
2023-04-01T15:42:00.106Z, 0.4
2023-04-01T15:44:00.107Z, 0.5
2023-04-01T15:46:00.108Z, 0.5
2023-04-01T15:48:00.227Z, 0.6
2023-04-01T15:50:00.144Z, 0.6
2023-04-01T15:52:00.080Z, 0.6
2023-04-01T15:54:00.125Z, 1.2
2023-04-01T15:56:00.119Z, 1.2
2023-04-01T15:58:00.106Z, 8.4
2023-04-01T16:00:00.217Z, 8.4
2023-04-01T16:02:00.166Z, 8.4
2023-04-01T16:04:00.215Z, 1.8
2023-04-01T16:06:00.154Z, 1.8
2023-04-01T16:08:00.299Z, 4
2023-04-01T16:10:00.149Z, 4
2023-04-01T16:12:00.156Z, 4
2023-04-01T16:14:00.129Z, 10.9
2023-04-01T16:16:00.161Z, 10.9
2023-04-01T16:18:00.143Z, 7.9
2023-04-01T16:20:00.129Z, 7.9
2023-04-01T16:22:01.987Z, 6.4
2023-04-01T16:24:00.162Z, 2.1
2023-04-01T16:26:00.111Z, 2.1
2023-04-01T16:28:00.053Z, 2.1
2023-04-01T16:30:00.049Z, 2.1
2023-04-01T16:32:00.079Z, 1.7
2023-04-01T16:34:00.093Z, 1.7
2023-04-01T16:36:00.148Z, 1.7
2023-04-01T16:38:00.062Z, 1.9
2023-04-01T16:40:00.047Z, 1.9
2023-04-01T16:42:00.109Z, 1.1
2023-04-01T16:44:00.069Z, 1.1
2023-04-01T16:46:00.135Z, 1.1
2023-04-01T16:48:00.094Z, 1.7
2023-04-01T16:50:00.050Z, 1.7
2023-04-01T16:52:00.059Z, 0.9
2023-04-01T16:54:00.061Z, 0.9
2023-04-01T16:56:00.107Z, 0.9
2023-04-01T16:58:00.101Z, 1.7
2023-04-01T17:00:00.165Z, 1.7
2023-04-01T17:02:00.140Z, 0.6
2023-04-01T17:04:00.192Z, 0.6
2023-04-01T17:06:00.134Z, 0.6
2023-04-01T17:08:00.128Z, 0.7
2023-04-01T17:10:00.141Z, 0.7
2023-04-01T17:12:00.208Z, 0.8
2023-04-01T17:14:00.176Z, 0.8
2023-04-01T17:16:00.217Z, 0.8
2023-04-01T17:18:00.190Z, 0.9
2023-04-01T17:20:00.182Z, 0.9
2023-04-01T17:22:00.115Z, 0.6
2023-04-01T17:24:00.182Z, 0.6
2023-04-01T17:26:00.127Z, 0.6
2023-04-01T17:28:00.058Z, 0.6
2023-04-01T17:30:00.086Z, 0.6
2023-04-01T17:32:00.060Z, 0.6
2023-04-01T17:34:00.059Z, 0.6
2023-04-01T17:36:00.184Z, 0.6
2023-04-01T17:38:00.045Z, 0.6
2023-04-01T17:40:00.125Z, 0.6
2023-04-01T17:42:00.106Z, 0.5
2023-04-01T17:44:00.055Z, 0.5
2023-04-01T17:46:00.052Z, 0.5
2023-04-01T17:48:00.175Z, 0.5
2023-04-01T17:50:00.104Z, 0.5
2023-04-01T17:52:00.047Z, 2.6
2023-04-01T17:54:00.112Z, 2.6
2023-04-01T17:56:00.106Z, 2.6
2023-04-01T17:58:00.108Z, 1.5
2023-04-01T18:00:00.121Z, 1.5
2023-04-01T18:02:00.239Z, 1.6
2023-04-01T18:04:00.221Z, 1.6
2023-04-01T18:06:00.143Z, 1.6
2023-04-01T18:08:00.154Z, 0.7
2023-04-01T18:10:00.160Z, 0.7
2023-04-01T18:12:00.138Z, 1.6
2023-04-01T18:14:00.112Z, 1.6
2023-04-01T18:16:00.151Z, 1.6
2023-04-01T18:18:00.251Z, 13.3
2023-04-01T18:20:00.164Z, 13.3
2023-04-01T18:22:00.208Z, 2.9
2023-04-01T18:24:02.664Z, 2.9
2023-04-01T18:26:00.124Z, 2.9
2023-04-01T18:28:00.124Z, 1
2023-04-01T18:30:00.151Z, 1
2023-04-01T18:32:00.153Z, 7.1
2023-04-01T18:34:00.119Z, 7.1
2023-04-01T18:36:00.245Z, 7.1
2023-04-01T18:38:00.166Z, 3.9
2023-04-01T18:40:00.128Z, 3.9
2023-04-01T18:42:00.062Z, 1.7
2023-04-01T18:44:00.135Z, 1.7
2023-04-01T18:46:00.155Z, 1.7
2023-04-01T18:48:00.161Z, 1.2
2023-04-01T18:50:00.053Z, 1.2
2023-04-01T18:52:00.034Z, 1.3
2023-04-01T18:54:00.023Z, 1.3
2023-04-01T18:56:00.126Z, 1.3
2023-04-01T18:58:00.144Z, 1.3
2023-04-01T19:00:00.152Z, 1.3
2023-04-01T19:02:00.135Z, 1.3
2023-04-01T19:04:00.214Z, 1.3
2023-04-01T19:06:00.112Z, 1.3
2023-04-01T19:08:00.102Z, 3.2
2023-04-01T19:10:00.120Z, 3.2
2023-04-01T19:12:00.139Z, 1.7
2023-04-01T19:14:00.148Z, 1.7
2023-04-01T19:16:00.195Z, 1.7
2023-04-01T19:18:00.195Z, 8.4
2023-04-01T19:20:00.140Z, 8.4
2023-04-01T19:22:00.128Z, 3.2
2023-04-01T19:24:00.152Z, 3.2
2023-04-01T19:26:00.083Z, 3.2
2023-04-01T19:28:00.098Z, 2.9
2023-04-01T19:30:00.082Z, 2.9
2023-04-01T19:32:00.049Z, 6.9
2023-04-01T19:34:00.096Z, 6.9
2023-04-01T19:36:00.091Z, 6.9
2023-04-01T19:38:00.052Z, 4.4
2023-04-01T19:40:00.039Z, 4.4
2023-04-01T19:42:00.118Z, 2.5
2023-04-01T19:44:00.056Z, 2.5
2023-04-01T19:46:00.093Z, 2.5
2023-04-01T19:48:00.126Z, 1.7
2023-04-01T19:50:00.099Z, 1.7
2023-04-01T19:52:00.103Z, 1.6
2023-04-01T19:54:00.077Z, 1.6
2023-04-01T19:56:00.100Z, 1.6
2023-04-01T19:58:00.099Z, 1.7
2023-04-01T20:00:00.106Z, 1.7
2023-04-01T20:02:00.158Z, 1.6
2023-04-01T20:04:00.245Z, 1.6
2023-04-01T20:06:00.166Z, 1.3
2023-04-01T20:08:00.131Z, 1.2
2023-04-01T20:10:00.182Z, 1.2
2023-04-01T20:12:00.157Z, 2
2023-04-01T20:14:00.115Z, 2
2023-04-01T20:16:00.165Z, 2
2023-04-01T20:18:00.161Z, 2
2023-04-01T20:20:00.138Z, 2
2023-04-01T20:22:00.127Z, 2.8
2023-04-01T20:24:00.130Z, 2.8
2023-04-01T20:26:00.112Z, 2.4
2023-04-01T20:28:00.069Z, 2.4
2023-04-01T20:30:00.139Z, 2.4
2023-04-01T20:32:00.143Z, 2.3
2023-04-01T20:34:00.098Z, 2.3
2023-04-01T20:36:00.128Z, 3.1
2023-04-01T20:38:00.102Z, 3.1
2023-04-01T20:40:00.118Z, 3.1
2023-04-01T20:42:00.101Z, 3.4
2023-04-01T20:44:00.127Z, 3.4
2023-04-01T20:46:00.193Z, 3.3
2023-04-01T20:48:00.163Z, 3.3
2023-04-01T20:50:00.140Z, 3.3
2023-04-01T20:52:00.129Z, 2.3
2023-04-01T20:54:00.120Z, 2.3
2023-04-01T20:56:00.105Z, 1.9
2023-04-01T20:58:00.122Z, 1.9
2023-04-01T21:00:00.139Z, 1.9
2023-04-01T21:02:00.116Z, 1.7
2023-04-01T21:04:00.192Z, 1.7
2023-04-01T21:06:00.140Z, 1.7
2023-04-01T21:08:00.108Z, 1.7
2023-04-01T21:10:00.100Z, 1.7
2023-04-01T21:12:00.118Z, 2
2023-04-01T21:14:00.122Z, 2
2023-04-01T21:16:00.151Z, 2
2023-04-01T21:18:00.270Z, 2
2023-04-01T21:20:00.146Z, 2
2023-04-01T21:22:00.127Z, 3.4
2023-04-01T21:24:00.099Z, 3.4
2023-04-01T21:26:00.085Z, 2.1
2023-04-01T21:28:00.079Z, 2.1
2023-04-01T21:30:00.128Z, 2.1
2023-04-01T21:32:00.119Z, 2
2023-04-01T21:34:00.096Z, 2
2023-04-01T21:36:00.138Z, 1.9
2023-04-01T21:38:00.099Z, 1.9
2023-04-01T21:40:00.097Z, 1.9
2023-04-01T21:42:00.117Z, 1.9
2023-04-01T21:44:00.101Z, 1.9
2023-04-01T21:46:00.132Z, 1.8
2023-04-01T21:48:00.258Z, 1.8
2023-04-01T21:50:00.098Z, 1.8
2023-04-01T21:52:00.091Z, 1.2
2023-04-01T21:54:00.130Z, 1.2
2023-04-01T21:56:00.105Z, 1.6
2023-04-01T21:58:00.112Z, 1.6
2023-04-01T22:00:00.196Z, 1.6
2023-04-01T22:02:00.157Z, 1.2
2023-04-01T22:04:00.179Z, 1.2
2023-04-01T22:06:00.125Z, 1.1
2023-04-01T22:08:00.118Z, 1.1
2023-04-01T22:10:00.101Z, 1.1
2023-04-01T22:12:00.125Z, 1.1
2023-04-01T22:14:00.103Z, 1.1
2023-04-01T22:16:00.201Z, 1.1
2023-04-01T22:18:00.175Z, 1.1
2023-04-01T22:20:00.135Z, 1.1
2023-04-01T22:22:00.112Z, 1.3
2023-04-01T22:24:00.132Z, 1.3
2023-04-01T22:26:00.346Z, 1.2
2023-04-01T22:28:00.097Z, 1.2
2023-04-01T22:30:00.065Z, 1.2
2023-04-01T22:32:00.078Z, 0.9
2023-04-01T22:34:00.040Z, 0.9
2023-04-01T22:36:00.095Z, 0.7
2023-04-01T22:38:00.062Z, 0.7
2023-04-01T22:40:00.052Z, 0.7
2023-04-01T22:42:00.055Z, 0.7
2023-04-01T22:44:00.060Z, 0.7
2023-04-01T22:46:00.101Z, 0.7
2023-04-01T22:48:00.107Z, 0.7
2023-04-01T22:50:00.098Z, 0.7
2023-04-01T22:52:00.051Z, 0.8
2023-04-01T22:54:00.119Z, 0.8
2023-04-01T22:56:00.109Z, 0.7
2023-04-01T22:58:00.114Z, 0.7
2023-04-01T23:00:00.145Z, 0.7
2023-04-01T23:02:00.085Z, 1
2023-04-01T23:04:00.124Z, 1
2023-04-01T23:06:00.138Z, 0.9
2023-04-01T23:08:00.140Z, 0.9
2023-04-01T23:10:00.137Z, 0.9
2023-04-01T23:12:00.119Z, 0.7
2023-04-01T23:14:00.108Z, 0.7
2023-04-01T23:16:00.146Z, 0.7
2023-04-01T23:18:00.168Z, 0.7
2023-04-01T23:20:00.159Z, 0.7
2023-04-01T23:22:00.123Z, 0.6
2023-04-01T23:24:00.141Z, 0.6
2023-04-01T23:26:00.107Z, 0.7
2023-04-01T23:28:00.067Z, 0.7
2023-04-01T23:30:00.108Z, 0.6
2023-04-01T23:32:00.043Z, 0.6
2023-04-01T23:34:00.042Z, 0.6
2023-04-01T23:36:00.131Z, 0.6
2023-04-01T23:38:00.042Z, 0.6
2023-04-01T23:40:00.042Z, 0.6
2023-04-01T23:42:00.109Z, 0.6
2023-04-01T23:44:00.088Z, 0.6
2023-04-01T23:46:00.080Z, 0.7
2023-04-01T23:48:00.151Z, 0.7
2023-04-01T23:50:01.735Z, 0.7
2023-04-01T23:52:00.047Z, 0.7
2023-04-01T23:54:00.074Z, 0.7
2023-04-01T23:56:00.095Z, 0.7
2023-04-01T23:58:00.102Z, 0.7
